Canefield Airport

Cloudy with adjacent showers
27oC (81oF)

Cloudy with adjacent showers


Winds: Easterly @ 04kts / 07km/h

Humidity: 89%

Barometric Pressure: 1010 mb

Accumulated Rainfall for November: 67.3 mm

Updated: 18:00 local time (22:00 UTC)

Douglas-Charles Airport

Partly cloudy
25oC (77oF)

Partly cloudy


Winds: Northerly @ 01kts / 02km/h

Humidity: 90%

Barometric Pressure: 1014 mb

Accumulated Rainfall for November: 142.0 mm

Updated: 21:00 local time (01:00 UTC)

Satellite Imagery

Satellite Imagery
Click image for larger view. (Source: National Hurricane Center).

Aviation Routine Report (METAR)

Douglas-Charles: METAR TDPD 150100Z 35001KT 9999 SCT016 25/24 Q1014=
Canefield: METAR TDCF 142200Z 10004KT 9999 FEW018 BKN042 27/25 Q1010=